sensor_id;sensor_type;location;lat;lon;timestamp;pressure;altitude;pressure_sealevel;temperature;humidity
48614;BME280;34408;51.426;5.444;2022-08-11T00:02:31;102110.41;;;25.13;37.26
48614;BME280;34408;51.426;5.444;2022-08-11T00:05:05;102116.50;;;25.10;37.16
48614;BME280;34408;51.426;5.444;2022-08-11T00:07:34;102109.06;;;25.10;37.02
48614;BME280;34408;51.426;5.444;2022-08-11T00:10:10;102111.00;;;25.10;37.02
48614;BME280;34408;51.426;5.444;2022-08-11T00:12:39;102108.53;;;25.08;37.23
48614;BME280;34408;51.426;5.444;2022-08-11T00:15:09;102109.91;;;25.06;37.31
48614;BME280;34408;51.426;5.444;2022-08-11T00:17:38;102106.34;;;25.05;37.08
48614;BME280;34408;51.426;5.444;2022-08-11T00:20:08;102106.63;;;25.04;37.14
48614;BME280;34408;51.426;5.444;2022-08-11T00:22:43;102105.00;;;25.03;37.21
48614;BME280;34408;51.426;5.444;2022-08-11T00:25:13;102106.94;;;25.02;37.48
48614;BME280;34408;51.426;5.444;2022-08-11T00:27:42;102098.72;;;24.92;37.12
48614;BME280;34408;51.426;5.444;2022-08-11T00:30:13;102100.66;;;24.96;37.35
48614;BME280;34408;51.426;5.444;2022-08-11T00:32:42;102101.72;;;24.95;37.38
48614;BME280;34408;51.426;5.444;2022-08-11T00:35:13;102100.91;;;24.95;37.47
48614;BME280;34408;51.426;5.444;2022-08-11T00:38:03;102103.41;;;24.91;37.30
48614;BME280;34408;51.426;5.444;2022-08-11T00:40:38;102102.88;;;24.89;37.19
48614;BME280;34408;51.426;5.444;2022-08-11T00:43:16;102099.88;;;24.86;37.28
48614;BME280;34408;51.426;5.444;2022-08-11T00:46:08;102101.81;;;24.85;37.57
48614;BME280;34408;51.426;5.444;2022-08-11T00:48:46;102095.00;;;24.78;37.42
48614;BME280;34408;51.426;5.444;2022-08-11T00:51:24;102106.25;;;24.81;37.63
48614;BME280;34408;51.426;5.444;2022-08-11T00:54:37;102099.38;;;24.79;37.40
48614;BME280;34408;51.426;5.444;2022-08-11T01:00:11;102101.06;;;24.75;37.93
48614;BME280;34408;51.426;5.444;2022-08-11T01:02:50;102098.34;;;24.70;37.66
48614;BME280;34408;51.426;5.444;2022-08-11T01:05:37;102096.44;;;24.70;37.58
48614;BME280;34408;51.426;5.444;2022-08-11T01:11:26;102104.44;;;24.66;38.06
48614;BME280;34408;51.426;5.444;2022-08-11T01:14:25;102105.00;;;24.63;37.81
48614;BME280;34408;51.426;5.444;2022-08-11T01:17:49;102100.06;;;24.60;37.62
48614;BME280;34408;51.426;5.444;2022-08-11T01:27:12;102101.22;;;24.54;38.16
48614;BME280;34408;51.426;5.444;2022-08-11T01:33:41;102104.81;;;24.50;38.04
48614;BME280;34408;51.426;5.444;2022-08-11T01:39:56;102106.50;;;24.46;37.68
48614;BME280;34408;51.426;5.444;2022-08-11T01:43:13;102105.13;;;24.43;38.15
48614;BME280;34408;51.426;5.444;2022-08-11T01:46:13;102106.25;;;24.42;38.32
48614;BME280;34408;51.426;5.444;2022-08-11T01:48:49;102111.19;;;24.40;37.92
48614;BME280;34408;51.426;5.444;2022-08-11T01:51:25;102116.97;;;24.39;38.21
48614;BME280;34408;51.426;5.444;2022-08-11T01:54:02;102114.50;;;24.37;38.16
48614;BME280;34408;51.426;5.444;2022-08-11T01:56:41;102111.22;;;24.35;38.25
48614;BME280;34408;51.426;5.444;2022-08-11T01:59:16;102114.81;;;24.36;38.15
48614;BME280;34408;51.426;5.444;2022-08-11T02:02:17;102117.84;;;24.34;38.00
48614;BME280;34408;51.426;5.444;2022-08-11T02:05:32;102120.88;;;24.32;38.36
48614;BME280;34408;51.426;5.444;2022-08-11T02:08:09;102116.75;;;24.30;38.43
48614;BME280;34408;51.426;5.444;2022-08-11T02:10:48;102115.13;;;24.29;38.00
48614;BME280;34408;51.426;5.444;2022-08-11T02:13:45;102114.56;;;24.27;38.35
48614;BME280;34408;51.426;5.444;2022-08-11T02:16:27;102111.28;;;24.25;38.05
48614;BME280;34408;51.426;5.444;2022-08-11T02:19:07;102113.50;;;24.23;38.12
48614;BME280;34408;51.426;5.444;2022-08-11T02:22:00;102115.41;;;24.22;38.07
48614;BME280;34408;51.426;5.444;2022-08-11T02:24:53;102112.13;;;24.20;38.35
48614;BME280;34408;51.426;5.444;2022-08-11T02:27:33;102117.09;;;24.18;38.33
48614;BME280;34408;51.426;5.444;2022-08-11T02:30:07;102109.13;;;24.17;38.35
48614;BME280;34408;51.426;5.444;2022-08-11T02:32:44;102112.16;;;24.15;38.38
48614;BME280;34408;51.426;5.444;2022-08-11T02:35:39;102105.31;;;24.13;38.37
48614;BME280;34408;51.426;5.444;2022-08-11T02:38:17;102100.66;;;24.08;38.58
48614;BME280;34408;51.426;5.444;2022-08-11T02:41:01;102102.59;;;24.08;38.31
48614;BME280;34408;51.426;5.444;2022-08-11T02:44:07;102099.28;;;24.06;38.56
48614;BME280;34408;51.426;5.444;2022-08-11T02:46:47;102099.03;;;24.02;38.81
48614;BME280;34408;51.426;5.444;2022-08-11T02:49:32;102092.72;;;24.01;38.33
48614;BME280;34408;51.426;5.444;2022-08-11T02:52:35;102096.31;;;23.97;38.47
48614;BME280;34408;51.426;5.444;2022-08-11T02:55:20;102097.41;;;23.96;38.89
48614;BME280;34408;51.426;5.444;2022-08-11T02:58:12;102102.38;;;23.94;38.78
48614;BME280;34408;51.426;5.444;2022-08-11T03:00:46;102103.75;;;23.91;38.59
48614;BME280;34408;51.426;5.444;2022-08-11T03:03:22;102096.91;;;23.89;38.99
48614;BME280;34408;51.426;5.444;2022-08-11T03:06:01;102105.41;;;23.87;38.90
48614;BME280;34408;51.426;5.444;2022-08-11T03:08:44;102101.31;;;23.85;38.85
48614;BME280;34408;51.426;5.444;2022-08-11T03:11:21;102103.50;;;23.83;39.03
48614;BME280;34408;51.426;5.444;2022-08-11T03:14:15;102104.63;;;23.82;39.14
48614;BME280;34408;51.426;5.444;2022-08-11T03:17:13;102090.63;;;23.78;38.77
48614;BME280;34408;51.426;5.444;2022-08-11T03:19:56;102099.16;;;23.77;39.24
48614;BME280;34408;51.426;5.444;2022-08-11T03:22:32;102101.34;;;23.75;39.22
48614;BME280;34408;51.426;5.444;2022-08-11T03:25:09;102096.41;;;23.72;39.19
48614;BME280;34408;51.426;5.444;2022-08-11T03:27:51;102097.78;;;23.69;38.83
48614;BME280;34408;51.426;5.444;2022-08-11T03:30:25;102097.25;;;23.67;38.90
48614;BME280;34408;51.426;5.444;2022-08-11T03:33:07;102099.44;;;23.65;39.12
48614;BME280;34408;51.426;5.444;2022-08-11T03:36:09;102100.00;;;23.62;39.45
48614;BME280;34408;51.426;5.444;2022-08-11T03:39:00;102102.50;;;23.58;39.38
48614;BME280;34408;51.426;5.444;2022-08-11T03:41:35;102097.00;;;23.58;39.21
48614;BME280;34408;51.426;5.444;2022-08-11T03:45:03;102097.56;;;23.55;39.48
48614;BME280;34408;51.426;5.444;2022-08-11T03:47:47;102098.66;;;23.54;39.48
48614;BME280;34408;51.426;5.444;2022-08-11T03:50:28;102095.91;;;23.54;39.48
48614;BME280;34408;51.426;5.444;2022-08-11T03:53:11;102106.31;;;23.52;39.59
48614;BME280;34408;51.426;5.444;2022-08-11T03:56:05;102102.22;;;23.50;39.25
48614;BME280;34408;51.426;5.444;2022-08-11T03:59:14;102095.06;;;23.49;39.22
48614;BME280;34408;51.426;5.444;2022-08-11T04:02:08;102098.09;;;23.47;39.23
48614;BME280;34408;51.426;5.444;2022-08-11T04:05:09;102101.94;;;23.46;39.26
48614;BME280;34408;51.426;5.444;2022-08-11T04:08:38;102097.00;;;23.43;39.68
48614;BME280;34408;51.426;5.444;2022-08-11T04:14:20;102090.44;;;23.39;39.59
48614;BME280;34408;51.426;5.444;2022-08-11T04:17:37;102093.44;;;23.37;39.59
48614;BME280;34408;51.426;5.444;2022-08-11T04:20:48;102081.94;;;23.35;39.76
48614;BME280;34408;51.426;5.444;2022-08-11T04:27:05;102086.34;;;23.31;39.67
48614;BME280;34408;51.426;5.444;2022-08-11T04:29:55;102074.28;;;23.22;39.56
48614;BME280;34408;51.426;5.444;2022-08-11T04:32:56;102089.34;;;23.25;39.52
48614;BME280;34408;51.426;5.444;2022-08-11T04:35:38;102090.72;;;23.22;39.63
48614;BME280;34408;51.426;5.444;2022-08-11T04:38:33;102091.00;;;23.21;39.78
48614;BME280;34408;51.426;5.444;2022-08-11T04:44:31;102092.66;;;23.17;40.01
48614;BME280;34408;51.426;5.444;2022-08-11T04:47:18;102087.44;;;23.15;40.07
48614;BME280;34408;51.426;5.444;2022-08-11T04:50:31;102090.47;;;23.14;40.10
48614;BME280;34408;51.426;5.444;2022-08-11T04:53:51;102098.16;;;23.12;40.21
48614;BME280;34408;51.426;5.444;2022-08-11T04:56:42;102098.69;;;23.09;40.34
48614;BME280;34408;51.426;5.444;2022-08-11T04:59:51;102104.47;;;23.07;40.10
48614;BME280;34408;51.426;5.444;2022-08-11T05:06:06;102100.91;;;23.01;40.23
48614;BME280;34408;51.426;5.444;2022-08-11T05:09:00;102103.91;;;23.00;40.37
48614;BME280;34408;51.426;5.444;2022-08-11T05:11:38;102093.22;;;22.98;40.16
48614;BME280;34408;51.426;5.444;2022-08-11T05:14:27;102100.63;;;22.98;40.55
48614;BME280;34408;51.426;5.444;2022-08-11T05:17:20;102100.91;;;22.96;40.38
48614;BME280;34408;51.426;5.444;2022-08-11T05:20:10;102097.34;;;22.91;40.40
48614;BME280;34408;51.426;5.444;2022-08-11T05:23:00;102100.06;;;22.91;40.47
48614;BME280;34408;51.426;5.444;2022-08-11T05:25:58;102101.72;;;22.92;40.50
48614;BME280;34408;51.426;5.444;2022-08-11T05:29:04;102100.06;;;22.91;40.77
48614;BME280;34408;51.426;5.444;2022-08-11T05:32:11;102107.47;;;22.90;40.55
48614;BME280;34408;51.426;5.444;2022-08-11T05:35:01;102103.09;;;22.89;40.42
48614;BME280;34408;51.426;5.444;2022-08-11T05:37:37;102104.47;;;22.87;40.84
48614;BME280;34408;51.426;5.444;2022-08-11T05:40:10;102101.72;;;22.87;41.68
48614;BME280;34408;51.426;5.444;2022-08-11T05:42:57;102110.75;;;22.87;41.30
48614;BME280;34408;51.426;5.444;2022-08-11T05:45:44;102105.28;;;22.87;41.23
48614;BME280;34408;51.426;5.444;2022-08-11T05:48:40;102106.66;;;22.90;40.89
48614;BME280;34408;51.426;5.444;2022-08-11T05:51:34;102105.56;;;22.91;40.77
48614;BME280;34408;51.426;5.444;2022-08-11T05:54:31;102110.78;;;22.92;40.86
48614;BME280;34408;51.426;5.444;2022-08-11T05:57:22;102102.28;;;22.94;41.06
48614;BME280;34408;51.426;5.444;2022-08-11T06:00:13;102101.44;;;22.93;40.76
48614;BME280;34408;51.426;5.444;2022-08-11T06:02:41;102115.16;;;22.93;41.04
48614;BME280;34408;51.426;5.444;2022-08-11T06:05:10;102112.41;;;22.93;40.95
48614;BME280;34408;51.426;5.444;2022-08-11T06:07:41;102105.84;;;22.94;40.78
48614;BME280;34408;51.426;5.444;2022-08-11T06:10:24;102119.00;;;22.97;40.99
48614;BME280;34408;51.426;5.444;2022-08-11T06:12:53;102106.38;;;22.96;40.65
48614;BME280;34408;51.426;5.444;2022-08-11T06:15:22;102105.28;;;23.02;40.98
48614;BME280;34408;51.426;5.444;2022-08-11T06:17:52;102111.31;;;23.04;41.17
48614;BME280;34408;51.426;5.444;2022-08-11T06:20:22;102104.72;;;23.05;40.91
48614;BME280;34408;51.426;5.444;2022-08-11T06:22:57;102101.44;;;23.09;41.12
48614;BME280;34408;51.426;5.444;2022-08-11T06:25:29;102104.72;;;23.11;40.99
48614;BME280;34408;51.426;5.444;2022-08-11T06:27:58;102115.44;;;23.12;40.78
48614;BME280;34408;51.426;5.444;2022-08-11T06:30:35;102113.22;;;23.14;41.03
48614;BME280;34408;51.426;5.444;2022-08-11T06:33:08;102114.88;;;23.15;40.88
48614;BME280;34408;51.426;5.444;2022-08-11T06:35:46;102112.69;;;23.17;40.81
48614;BME280;34408;51.426;5.444;2022-08-11T06:38:27;102107.75;;;23.19;40.94
48614;BME280;34408;51.426;5.444;2022-08-11T06:41:06;102106.66;;;23.20;41.08
48614;BME280;34408;51.426;5.444;2022-08-11T06:44:00;102112.94;;;23.21;41.20
48614;BME280;34408;51.426;5.444;2022-08-11T06:46:34;102118.16;;;23.22;41.31
48614;BME280;34408;51.426;5.444;2022-08-11T06:49:04;102117.06;;;23.23;41.28
48614;BME280;34408;51.426;5.444;2022-08-11T06:54:28;102117.88;;;23.29;41.22
48614;BME280;34408;51.426;5.444;2022-08-11T06:56:57;102119.53;;;23.30;41.68
48614;BME280;34408;51.426;5.444;2022-08-11T06:59:59;102121.72;;;23.33;41.32
48614;BME280;34408;51.426;5.444;2022-08-11T07:02:47;102125.56;;;23.37;41.23
48614;BME280;34408;51.426;5.444;2022-08-11T07:05:20;102123.34;;;23.39;41.04
48614;BME280;34408;51.426;5.444;2022-08-11T07:08:15;102120.06;;;23.42;41.29
48614;BME280;34408;51.426;5.444;2022-08-11T07:11:26;102114.84;;;23.46;40.96
48614;BME280;34408;51.426;5.444;2022-08-11T07:14:22;102115.38;;;23.48;40.98
48614;BME280;34408;51.426;5.444;2022-08-11T07:17:10;102116.75;;;23.50;41.00
48614;BME280;34408;51.426;5.444;2022-08-11T07:19:42;102117.28;;;23.52;41.33
48614;BME280;34408;51.426;5.444;2022-08-11T07:22:30;102115.94;;;23.55;40.89
48614;BME280;34408;51.426;5.444;2022-08-11T07:25:28;102117.31;;;23.57;41.53
48614;BME280;34408;51.426;5.444;2022-08-11T07:28:22;102112.38;;;23.59;41.36
48614;BME280;34408;51.426;5.444;2022-08-11T07:31:11;102113.75;;;23.62;41.36
48614;BME280;34408;51.426;5.444;2022-08-11T07:33:44;102122.78;;;23.62;41.11
48614;BME280;34408;51.426;5.444;2022-08-11T07:36:36;102117.84;;;23.64;41.10
48614;BME280;34408;51.426;5.444;2022-08-11T07:39:07;102120.31;;;23.66;41.22
48614;BME280;34408;51.426;5.444;2022-08-11T07:41:37;102121.13;;;23.66;40.73
48614;BME280;34408;51.426;5.444;2022-08-11T07:44:07;102121.97;;;23.67;41.13
48614;BME280;34408;51.426;5.444;2022-08-11T07:46:38;102116.19;;;23.68;41.16
48614;BME280;34408;51.426;5.444;2022-08-11T07:49:27;102113.72;;;23.67;40.92
48614;BME280;34408;51.426;5.444;2022-08-11T07:52:13;102117.00;;;23.69;40.84
48614;BME280;34408;51.426;5.444;2022-08-11T07:54:54;102119.47;;;23.71;41.25
48614;BME280;34408;51.426;5.444;2022-08-11T07:57:22;102116.44;;;23.72;41.01
48614;BME280;34408;51.426;5.444;2022-08-11T08:00:34;102120.56;;;23.75;41.19
48614;BME280;34408;51.426;5.444;2022-08-11T08:03:20;102121.66;;;23.74;41.45
48614;BME280;34408;51.426;5.444;2022-08-11T08:06:20;102130.72;;;23.79;41.40
48614;BME280;34408;51.426;5.444;2022-08-11T08:09:07;102124.13;;;23.80;41.56
48614;BME280;34408;51.426;5.444;2022-08-11T08:11:53;102123.84;;;23.82;41.59
48614;BME280;34408;51.426;5.444;2022-08-11T08:14:39;102125.19;;;23.84;41.58
48614;BME280;34408;51.426;5.444;2022-08-11T08:17:28;102118.59;;;23.85;41.48
48614;BME280;34408;51.426;5.444;2022-08-11T08:20:37;102112.56;;;23.88;41.71
48614;BME280;34408;51.426;5.444;2022-08-11T08:23:06;102105.44;;;23.82;42.02
48614;BME280;34408;51.426;5.444;2022-08-11T08:25:38;102120.78;;;23.93;42.12
48614;BME280;34408;51.426;5.444;2022-08-11T08:28:09;102116.63;;;23.96;42.39
48614;BME280;34408;51.426;5.444;2022-08-11T08:30:37;102120.75;;;23.98;42.27
48614;BME280;34408;51.426;5.444;2022-08-11T08:33:18;102115.78;;;24.00;42.03
48614;BME280;34408;51.426;5.444;2022-08-11T08:35:48;102122.94;;;24.01;41.99
48614;BME280;34408;51.426;5.444;2022-08-11T08:38:22;102115.25;;;24.04;42.29
48614;BME280;34408;51.426;5.444;2022-08-11T08:40:51;102113.31;;;24.04;42.17
48614;BME280;34408;51.426;5.444;2022-08-11T08:43:23;102115.78;;;24.06;42.43
48614;BME280;34408;51.426;5.444;2022-08-11T08:45:52;102112.75;;;24.07;42.34
48614;BME280;34408;51.426;5.444;2022-08-11T08:48:25;102106.69;;;24.10;41.89
48614;BME280;34408;51.426;5.444;2022-08-11T08:50:58;102110.25;;;24.11;41.78
48614;BME280;34408;51.426;5.444;2022-08-11T08:53:49;102115.47;;;24.12;42.12
48614;BME280;34408;51.426;5.444;2022-08-11T08:56:26;102105.03;;;24.14;42.39
48614;BME280;34408;51.426;5.444;2022-08-11T08:58:57;102097.34;;;24.11;42.12
48614;BME280;34408;51.426;5.444;2022-08-11T09:01:26;102109.38;;;24.20;42.86
48614;BME280;34408;51.426;5.444;2022-08-11T09:03:58;102111.03;;;24.21;42.38
48614;BME280;34408;51.426;5.444;2022-08-11T09:06:36;102106.06;;;24.23;41.98
48614;BME280;34408;51.426;5.444;2022-08-11T09:09:06;102107.72;;;24.24;41.95
48614;BME280;34408;51.426;5.444;2022-08-11T09:11:35;102104.97;;;24.24;41.43
48614;BME280;34408;51.426;5.444;2022-08-11T09:14:32;102097.56;;;24.20;41.90
48614;BME280;34408;51.426;5.444;2022-08-11T09:17:16;102112.38;;;24.29;42.08
48614;BME280;34408;51.426;5.444;2022-08-11T09:19:47;102100.81;;;24.32;42.20
48614;BME280;34408;51.426;5.444;2022-08-11T09:22:22;102100.25;;;24.35;41.84
48614;BME280;34408;51.426;5.444;2022-08-11T09:25:43;102100.50;;;24.39;41.86
48614;BME280;34408;51.426;5.444;2022-08-11T09:28:29;102098.00;;;24.42;41.53
48614;BME280;34408;51.426;5.444;2022-08-11T09:30:58;102096.31;;;24.46;42.12
48614;BME280;34408;51.426;5.444;2022-08-11T09:33:29;102091.91;;;24.50;41.61
48614;BME280;34408;51.426;5.444;2022-08-11T09:35:59;102086.66;;;24.54;41.69
48614;BME280;34408;51.426;5.444;2022-08-11T09:38:50;102087.72;;;24.58;41.74
48614;BME280;34408;51.426;5.444;2022-08-11T09:41:36;102079.47;;;24.58;41.56
48614;BME280;34408;51.426;5.444;2022-08-11T09:44:26;102066.00;;;24.56;41.59
48614;BME280;34408;51.426;5.444;2022-08-11T09:47:19;102079.13;;;24.70;42.23
48614;BME280;34408;51.426;5.444;2022-08-11T09:49:51;102086.78;;;24.73;41.56
48614;BME280;34408;51.426;5.444;2022-08-11T09:52:22;102088.13;;;24.75;42.16
48614;BME280;34408;51.426;5.444;2022-08-11T09:54:52;102072.19;;;24.77;41.46
48614;BME280;34408;51.426;5.444;2022-08-11T09:57:21;102083.13;;;24.82;41.26
48614;BME280;34408;51.426;5.444;2022-08-11T10:00:08;102077.88;;;24.86;41.33
48614;BME280;34408;51.426;5.444;2022-08-11T10:02:45;102077.84;;;24.91;41.21
48614;BME280;34408;51.426;5.444;2022-08-11T10:05:16;102080.53;;;24.96;41.40
48614;BME280;34408;51.426;5.444;2022-08-11T10:08:04;102078.03;;;25.05;41.66
48614;BME280;34408;51.426;5.444;2022-08-11T10:10:35;102060.66;;;25.09;41.28
48614;BME280;34408;51.426;5.444;2022-08-11T10:13:06;102074.94;;;25.11;41.44
48614;BME280;34408;51.426;5.444;2022-08-11T10:15:57;102068.84;;;25.14;41.18
48614;BME280;34408;51.426;5.444;2022-08-11T10:18:43;102062.75;;;25.17;40.80
48614;BME280;34408;51.426;5.444;2022-08-11T10:21:24;102063.00;;;25.21;40.68
48614;BME280;34408;51.426;5.444;2022-08-11T10:23:58;102056.91;;;25.24;40.83
48614;BME280;34408;51.426;5.444;2022-08-11T10:26:45;102058.28;;;25.26;40.78
48614;BME280;34408;51.426;5.444;2022-08-11T10:29:20;102052.72;;;25.32;40.47
48614;BME280;34408;51.426;5.444;2022-08-11T10:32:20;102052.91;;;25.40;40.32
48614;BME280;34408;51.426;5.444;2022-08-11T10:35:25;102052.25;;;25.48;40.64
48614;BME280;34408;51.426;5.444;2022-08-11T10:37:53;102049.72;;;25.52;40.62
48614;BME280;34408;51.426;5.444;2022-08-11T10:40:44;102042.22;;;25.57;40.36
48614;BME280;34408;51.426;5.444;2022-08-11T10:43:33;102040.78;;;25.65;39.97
48614;BME280;34408;51.426;5.444;2022-08-11T10:46:22;102039.13;;;25.64;39.69
48614;BME280;34408;51.426;5.444;2022-08-11T10:49:07;102040.50;;;25.67;39.95
48614;BME280;34408;51.426;5.444;2022-08-11T10:51:36;102044.59;;;25.69;40.17
48614;BME280;34408;51.426;5.444;2022-08-11T10:54:24;102036.03;;;25.71;39.81
48614;BME280;34408;51.426;5.444;2022-08-11T10:57:13;102032.09;;;25.77;39.81
48614;BME280;34408;51.426;5.444;2022-08-11T10:59:59;102027.34;;;25.82;39.22
48614;BME280;34408;51.426;5.444;2022-08-11T11:02:27;102026.69;;;25.90;40.14
48614;BME280;34408;51.426;5.444;2022-08-11T11:04:58;102024.59;;;26.01;40.18
48614;BME280;34408;51.426;5.444;2022-08-11T11:07:36;102025.56;;;26.10;39.61
48614;BME280;34408;51.426;5.444;2022-08-11T11:10:09;102018.56;;;26.18;39.06
48614;BME280;34408;51.426;5.444;2022-08-11T11:12:42;102016.63;;;26.18;38.55
48614;BME280;34408;51.426;5.444;2022-08-11T11:15:30;102017.44;;;26.19;39.11
48614;BME280;34408;51.426;5.444;2022-08-11T11:18:20;102011.91;;;26.19;39.14
48614;BME280;34408;51.426;5.444;2022-08-11T11:20:53;102020.94;;;26.24;39.87
48614;BME280;34408;51.426;5.444;2022-08-11T11:23:26;102022.75;;;26.34;39.72
48614;BME280;34408;51.426;5.444;2022-08-11T11:26:19;102022.88;;;26.43;39.62
48614;BME280;34408;51.426;5.444;2022-08-11T11:29:13;102019.13;;;26.52;39.55
48614;BME280;34408;51.426;5.444;2022-08-11T11:31:53;102022.03;;;26.61;38.84
48614;BME280;34408;51.426;5.444;2022-08-11T11:34:54;102015.63;;;26.66;38.67
48614;BME280;34408;51.426;5.444;2022-08-11T11:37:28;102015.34;;;26.81;39.49
48614;BME280;34408;51.426;5.444;2022-08-11T11:39:57;102010.56;;;26.86;39.25
48614;BME280;34408;51.426;5.444;2022-08-11T11:42:26;102012.84;;;26.98;38.78
48614;BME280;34408;51.426;5.444;2022-08-11T11:44:57;102005.00;;;27.05;38.82
48614;BME280;34408;51.426;5.444;2022-08-11T11:47:27;102006.53;;;27.11;38.46
48614;BME280;34408;51.426;5.444;2022-08-11T11:49:56;102002.34;;;27.14;38.91
48614;BME280;34408;51.426;5.444;2022-08-11T11:52:25;101997.03;;;27.17;38.85
48614;BME280;34408;51.426;5.444;2022-08-11T11:54:55;101994.47;;;27.21;38.45
48614;BME280;34408;51.426;5.444;2022-08-11T11:57:23;101998.97;;;27.31;38.54
48614;BME280;34408;51.426;5.444;2022-08-11T12:00:28;101992.22;;;27.37;38.48
48614;BME280;34408;51.426;5.444;2022-08-11T12:03:13;101989.28;;;27.33;37.28
48614;BME280;34408;51.426;5.444;2022-08-11T12:05:42;101988.75;;;27.31;38.37
48614;BME280;34408;51.426;5.444;2022-08-11T12:08:11;101993.34;;;27.36;38.51
48614;BME280;34408;51.426;5.444;2022-08-11T12:10:44;101986.91;;;27.40;38.29
48614;BME280;34408;51.426;5.444;2022-08-11T12:13:12;101984.56;;;27.47;38.31
48614;BME280;34408;51.426;5.444;2022-08-11T12:16:00;101975.84;;;27.54;37.64
48614;BME280;34408;51.426;5.444;2022-08-11T12:18:51;101982.00;;;27.65;37.83
48614;BME280;34408;51.426;5.444;2022-08-11T12:21:20;101982.09;;;27.73;37.80
48614;BME280;34408;51.426;5.444;2022-08-11T12:23:50;101975.41;;;27.74;37.98
48614;BME280;34408;51.426;5.444;2022-08-11T12:26:36;101969.56;;;27.76;38.05
48614;BME280;34408;51.426;5.444;2022-08-11T12:29:42;101966.38;;;27.82;37.73
48614;BME280;34408;51.426;5.444;2022-08-11T12:32:12;101964.75;;;27.81;37.07
48614;BME280;34408;51.426;5.444;2022-08-11T12:34:40;101954.81;;;27.80;36.20
48614;BME280;34408;51.426;5.444;2022-08-11T12:37:08;101954.19;;;27.83;37.87
48614;BME280;34408;51.426;5.444;2022-08-11T12:39:43;101951.31;;;27.88;37.44
48614;BME280;34408;51.426;5.444;2022-08-11T12:42:51;101949.44;;;27.98;37.47
48614;BME280;34408;51.426;5.444;2022-08-11T12:45:50;101949.31;;;28.03;37.44
48614;BME280;34408;51.426;5.444;2022-08-11T12:48:29;101948.19;;;28.04;36.58
48614;BME280;34408;51.426;5.444;2022-08-11T12:51:33;101940.41;;;28.06;36.00
48614;BME280;34408;51.426;5.444;2022-08-11T12:54:45;101933.44;;;28.08;36.65
48614;BME280;34408;51.426;5.444;2022-08-11T12:57:14;101931.38;;;28.14;37.24
48614;BME280;34408;51.426;5.444;2022-08-11T13:00:04;101936.16;;;28.22;37.22
48614;BME280;34408;51.426;5.444;2022-08-11T13:02:50;101930.81;;;28.26;36.93
48614;BME280;34408;51.426;5.444;2022-08-11T13:05:38;101937.69;;;28.28;35.87
48614;BME280;34408;51.426;5.444;2022-08-11T13:08:12;101922.72;;;28.29;35.08
48614;BME280;34408;51.426;5.444;2022-08-11T13:10:41;101919.97;;;28.29;35.07
48614;BME280;34408;51.426;5.444;2022-08-11T13:13:27;101922.41;;;28.31;35.79
48614;BME280;34408;51.426;5.444;2022-08-11T13:16:16;101916.25;;;28.34;36.12
48614;BME280;34408;51.426;5.444;2022-08-11T13:18:46;101915.94;;;28.35;36.09
48614;BME280;34408;51.426;5.444;2022-08-11T13:21:17;101910.91;;;28.37;35.74
48614;BME280;34408;51.426;5.444;2022-08-11T13:23:48;101902.47;;;28.42;36.63
48614;BME280;34408;51.426;5.444;2022-08-11T13:26:33;101904.09;;;28.43;34.90
48614;BME280;34408;51.426;5.444;2022-08-11T13:29:15;101904.59;;;28.45;34.67
48614;BME280;34408;51.426;5.444;2022-08-11T13:31:43;101903.16;;;28.48;35.04
48614;BME280;34408;51.426;5.444;2022-08-11T13:34:12;101904.16;;;28.52;35.14
48614;BME280;34408;51.426;5.444;2022-08-11T13:36:43;101896.84;;;28.56;36.26
48614;BME280;34408;51.426;5.444;2022-08-11T13:39:12;101905.66;;;28.58;35.38
48614;BME280;34408;51.426;5.444;2022-08-11T13:41:42;101895.56;;;28.62;35.15
48614;BME280;34408;51.426;5.444;2022-08-11T13:44:15;101893.00;;;28.66;35.69
48614;BME280;34408;51.426;5.444;2022-08-11T13:46:50;101894.63;;;28.67;35.50
48614;BME280;34408;51.426;5.444;2022-08-11T13:49:20;101875.56;;;28.65;34.60
48614;BME280;34408;51.426;5.444;2022-08-11T13:51:50;101883.72;;;28.70;34.07
48614;BME280;34408;51.426;5.444;2022-08-11T13:54:20;101883.41;;;28.72;34.32
48614;BME280;34408;51.426;5.444;2022-08-11T13:56:53;101889.94;;;28.76;35.01
48614;BME280;34408;51.426;5.444;2022-08-11T13:59:22;101884.09;;;28.77;33.88
48614;BME280;34408;51.426;5.444;2022-08-11T14:01:59;101878.72;;;28.81;34.84
48614;BME280;34408;51.426;5.444;2022-08-11T14:04:54;101874.53;;;28.83;34.57
48614;BME280;34408;51.426;5.444;2022-08-11T14:07:26;101871.63;;;28.89;34.69
48614;BME280;34408;51.426;5.444;2022-08-11T14:10:00;101870.16;;;28.91;34.83
48614;BME280;34408;51.426;5.444;2022-08-11T14:12:30;101876.38;;;28.97;35.77
48614;BME280;34408;51.426;5.444;2022-08-11T14:15:20;101875.09;;;29.03;35.77
48614;BME280;34408;51.426;5.444;2022-08-11T14:17:53;101874.94;;;29.08;36.17
48614;BME280;34408;51.426;5.444;2022-08-11T14:20:23;101866.78;;;29.11;35.90
48614;BME280;34408;51.426;5.444;2022-08-11T14:23:13;101864.84;;;29.12;34.41
48614;BME280;34408;51.426;5.444;2022-08-11T14:25:41;101861.91;;;29.17;35.31
48614;BME280;34408;51.426;5.444;2022-08-11T14:28:32;101862.75;;;29.18;34.04
48614;BME280;34408;51.426;5.444;2022-08-11T14:31:11;101859.31;;;29.21;35.21
48614;BME280;34408;51.426;5.444;2022-08-11T14:33:39;101863.25;;;29.28;32.20
48614;BME280;34408;51.426;5.444;2022-08-11T14:36:30;101857.22;;;29.35;33.12
48614;BME280;34408;51.426;5.444;2022-08-11T14:39:06;101850.53;;;29.36;33.48
48614;BME280;34408;51.426;5.444;2022-08-11T14:41:37;101850.22;;;29.37;33.95
48614;BME280;34408;51.426;5.444;2022-08-11T14:44:41;101855.44;;;29.39;34.23
48614;BME280;34408;51.426;5.444;2022-08-11T14:48:16;101849.41;;;29.37;32.02